Fort Garland, CO (81133)

6:23 PM MDT on August 21, 2014 (GMT -0600)
Sangre De Cristo Ranches | Change Station
CLOSE
Current Station
Personal Weather Station
Location: Fort Garland, CO
Elevation: 8169 ft
Nearby Weather Stations

Elev 8169 ft 37.40 °N, 105.40 °W | Updated 11 minutes ago

Clear
Clear
74.7 °F
Feels Like 77 °F
N
0.0
Wind Variable Wind from WSW

Today
High -- | Low -- °F
--% Chance of Precip.
Yesterday
High -- | Low -- °F
Precip. -- in
6:22 AM 7:45 PM
Waning Crescent, 11% visible
Pressure 29.96 in
Visibility 10.0 miles
Clouds Clear
Heat Index 77 °F
Dew Point 38 °F
Humidity 27%
Rainfall 0.00 in
Snow Depth Not available.
UV 2 out of 12
Pollen 10.10 out of 12
Air Quality Not available.
Flu Activity Not available.
METAR KALS 212352Z AUTO 11005KT 10SM CLR 25/01 A3021 RMK AO2 SLP143 T02500006 10267 20217 56009

More Conditions Fewer Conditions

Pressure 29.96 in
Visibility 10.0 miles
Clouds Clear
Heat Index 77 °F
Dew Point 38 °F
Humidity 27%
Rainfall 0.00 in
Snow Depth Not available.
UV 2 out of 12
Pollen 10.10 out of 12
Air Quality Not available.
Flu Activity Not available.
METAR KALS 212352Z AUTO 11005KT 10SM CLR 25/01 A3021 RMK AO2 SLP143 T02500006 10267 20217 56009

More Conditions Fewer Conditions

10-Day Weather Forecast

Almanac

Astronomy

Aug. 21, 2014 Rise Set
Actual Time 6:22 AM MDT 7:45 PM MDT
Civil Twilight 5:55 AM MDT 8:12 PM MDT
Nautical Twilight 5:22 AM MDT 8:45 PM MDT
Astronomical Twilight 4:47 AM MDT 9:19 PM MDT
Moon 2:57 AM MDT (8/21) 5:14 PM MDT (8/21)
Length of Visible Light 14h 17m
Length of Day
13h 23m
Tomorrow will be 2m 12s shorter.
Waning Crescent, 11% of the Moon is Illuminated
Today
Waning Crescent
Aug 25
New
Sep 2
First Quarter
Sep 8
Full
Sep 15
Last Quarter

Today's Extremes

State Highs State Lows

Community

WunderPhotos

Upload Photos

1,746,075 photos uploaded!

Nearby

Snow Depth

Station Depth Elevation
Slumgullion 0 in 11440 ft
Rough And Tumble 0 in 10360 ft
Independence Pass 188 in 10600 ft
Mineral Creek 0 in 10040 ft
Red Mountain Pass 0 in 11150 ft

Earthquake Activity

City Distance Mag. Time & Date
No recent earthquake activity has been reported nearby.
Minimum magnitude displayed is 2.5.

Coastal Water Temperatures

Place Temperature
No Stations Reporting

Nearby Weather Stations